createdAt,value
2018-02-03T00:01:11.139Z,1.33
2018-02-03T00:03:38.924Z,1.37
2018-02-03T00:06:06.717Z,1.33
2018-02-03T00:08:34.531Z,1.20
2018-02-03T00:11:02.327Z,1.30
2018-02-03T00:13:30.187Z,1.40
2018-02-03T00:15:58.019Z,1.30
2018-02-03T00:18:25.817Z,2.40
2018-02-03T00:20:53.676Z,1.60
2018-02-03T00:23:21.519Z,1.57
2018-02-03T00:25:49.378Z,1.17
2018-02-03T00:28:17.175Z,1.67
2018-02-03T00:30:44.975Z,1.70
2018-02-03T00:33:12.923Z,1.87
2018-02-03T00:35:40.707Z,1.97
2018-02-03T00:38:08.535Z,1.77
2018-02-03T00:40:36.369Z,2.30
2018-02-03T00:43:04.275Z,1.90
2018-02-03T00:45:32.108Z,2.67
2018-02-03T00:47:59.980Z,3.13
2018-02-03T00:50:27.788Z,1.77
2018-02-03T00:52:55.644Z,1.80
2018-02-03T00:55:23.548Z,1.80
2018-02-03T00:57:52.121Z,3.00
2018-02-03T01:00:20.060Z,4.60
2018-02-03T01:02:47.930Z,3.33
2018-02-03T01:05:15.753Z,2.67
2018-02-03T01:07:43.620Z,2.10
2018-02-03T01:10:11.445Z,5.70
2018-02-03T01:12:39.259Z,1.73
2018-02-03T01:15:07.087Z,1.10
2018-02-03T01:17:34.925Z,1.53
2018-02-03T01:20:02.792Z,1.50
2018-02-03T01:22:30.643Z,1.30
2018-02-03T01:24:58.439Z,1.50
2018-02-03T01:27:26.257Z,1.60
2018-02-03T01:29:54.121Z,2.67
2018-02-03T01:32:21.911Z,1.30
2018-02-03T01:34:49.769Z,1.90
2018-02-03T01:37:17.575Z,2.90
2018-02-03T01:39:45.458Z,1.80
2018-02-03T01:42:13.273Z,3.00
2018-02-03T01:44:41.059Z,2.30
2018-02-03T01:47:08.852Z,1.93
2018-02-03T01:49:36.667Z,1.80
2018-02-03T01:52:04.654Z,1.70
2018-02-03T01:54:32.467Z,1.67
2018-02-03T01:57:00.310Z,1.63
2018-02-03T01:59:28.892Z,0.93
2018-02-03T02:01:57.508Z,1.13
2018-02-03T02:04:25.310Z,1.23
2018-02-03T02:06:53.128Z,0.90
2018-02-03T02:09:20.987Z,1.30
2018-02-03T02:11:48.812Z,1.17
2018-02-03T02:14:16.601Z,0.85
2018-02-03T02:16:44.424Z,0.93
2018-02-03T02:19:12.341Z,1.03
2018-02-03T02:21:40.181Z,0.90
2018-02-03T02:24:07.987Z,0.90
2018-02-03T02:26:35.776Z,1.27
2018-02-03T02:29:03.566Z,1.10
2018-02-03T02:31:31.368Z,1.10
2018-02-03T02:34:00.027Z,1.00
2018-02-03T02:36:27.849Z,0.80
2018-02-03T02:38:55.635Z,1.00
2018-02-03T02:41:23.419Z,0.90
2018-02-03T02:43:51.203Z,1.00
2018-02-03T02:46:19.752Z,0.90
2018-02-03T02:48:47.557Z,0.80
2018-02-03T02:51:16.191Z,1.20
2018-02-03T02:53:44.018Z,0.70
2018-02-03T02:56:11.830Z,0.90
2018-02-03T02:58:39.690Z,0.83
2018-02-03T03:01:07.519Z,0.60
2018-02-03T03:03:35.341Z,0.77
2018-02-03T03:06:03.198Z,1.00
2018-02-03T03:08:31.013Z,0.80
2018-02-03T03:10:58.811Z,0.77
2018-02-03T03:13:26.688Z,0.50
2018-02-03T03:15:54.544Z,0.70
2018-02-03T03:18:22.392Z,0.80
2018-02-03T03:20:50.203Z,0.77
2018-02-03T03:23:17.999Z,0.93
2018-02-03T03:25:45.799Z,0.80
2018-02-03T03:28:13.591Z,0.83
2018-02-03T03:30:41.376Z,1.00
2018-02-03T03:33:10.183Z,1.33
2018-02-03T03:35:38.045Z,1.00
2018-02-03T03:38:05.914Z,0.80
2018-02-03T03:40:33.806Z,0.60
2018-02-03T03:43:01.632Z,0.50
2018-02-03T03:45:29.487Z,0.80
2018-02-03T03:47:58.083Z,0.90
2018-02-03T03:50:26.775Z,1.07
2018-02-03T03:52:54.651Z,0.70
2018-02-03T03:55:22.715Z,0.67
2018-02-03T03:57:50.514Z,0.80
2018-02-03T04:00:18.309Z,0.60
2018-02-03T04:02:46.162Z,0.53
2018-02-03T04:05:13.970Z,0.73
2018-02-03T04:07:42.655Z,0.80
2018-02-03T04:10:11.684Z,0.70
2018-02-03T04:12:39.474Z,0.73
2018-02-03T04:15:07.279Z,1.00
2018-02-03T04:17:35.102Z,0.70
2018-02-03T04:20:02.970Z,0.70
2018-02-03T04:22:30.855Z,0.70
2018-02-03T04:32:52.483Z,0.50
2018-02-03T04:35:25.932Z,0.60
2018-02-03T04:40:45.408Z,0.70
2018-02-03T04:45:58.230Z,0.63
2018-02-03T04:48:32.027Z,0.50
2018-02-03T04:51:05.463Z,0.47
2018-02-03T04:53:38.239Z,0.50
2018-02-03T04:56:14.770Z,0.70
2018-02-03T04:58:51.066Z,0.80
2018-02-03T05:04:00.044Z,0.83
2018-02-03T05:06:35.624Z,0.70
2018-02-03T05:09:23.151Z,0.50
2018-02-03T05:14:35.197Z,0.67
2018-02-03T05:17:10.068Z,0.60
2018-02-03T05:19:42.451Z,0.77
2018-02-03T05:22:12.912Z,0.50
2018-02-03T05:24:45.416Z,0.70
2018-02-03T05:27:14.420Z,0.60
2018-02-03T05:29:50.319Z,0.60
2018-02-03T05:32:20.944Z,0.50
2018-02-03T05:34:54.549Z,0.60
2018-02-03T05:37:36.869Z,0.60
2018-02-03T05:40:17.620Z,1.77
2018-02-03T05:42:45.508Z,2.00
2018-02-03T05:45:29.241Z,1.50
2018-02-03T05:47:57.094Z,2.00
2018-02-03T05:50:25.055Z,1.10
2018-02-03T05:52:52.966Z,1.10
2018-02-03T05:55:21.622Z,1.20
2018-02-03T05:57:49.415Z,1.33
2018-02-03T06:00:17.287Z,1.30
2018-02-03T06:02:45.879Z,1.10
2018-02-03T06:05:13.799Z,0.70
2018-02-03T06:07:41.600Z,0.60
2018-02-03T06:10:10.176Z,0.90
2018-02-03T06:12:37.968Z,1.07
2018-02-03T06:15:05.785Z,0.97
2018-02-03T06:17:33.671Z,1.50
2018-02-03T06:20:01.526Z,0.80
2018-02-03T06:22:29.338Z,0.77
2018-02-03T06:24:57.202Z,1.10
2018-02-03T06:27:25.058Z,0.70
2018-02-03T06:29:52.927Z,0.80
2018-02-03T06:32:20.739Z,1.10
2018-02-03T06:34:48.535Z,1.10
2018-02-03T06:37:17.088Z,0.95
2018-02-03T06:39:44.947Z,0.90
2018-02-03T06:42:12.765Z,0.70
2018-02-03T06:44:40.558Z,1.00
2018-02-03T06:47:08.438Z,0.80
2018-02-03T06:49:36.255Z,0.80
2018-02-03T06:52:04.055Z,0.50
2018-02-03T06:54:31.844Z,0.60
2018-02-03T06:56:59.641Z,0.80
2018-02-03T06:59:28.204Z,0.70
2018-02-03T07:01:56.027Z,0.50
2018-02-03T07:04:23.825Z,0.60
2018-02-03T07:06:51.611Z,0.63
2018-02-03T07:09:19.544Z,0.60
2018-02-03T07:11:47.353Z,0.60
2018-02-03T07:14:15.211Z,0.70
2018-02-03T07:16:43.005Z,0.77
2018-02-03T07:19:10.813Z,1.00
2018-02-03T07:21:38.607Z,0.70
2018-02-03T07:24:06.460Z,0.60
2018-02-03T07:26:34.268Z,0.87
2018-02-03T07:29:02.148Z,0.90
2018-02-03T07:31:29.927Z,1.13
2018-02-03T07:33:57.786Z,1.10
2018-02-03T07:36:25.606Z,1.00
2018-02-03T07:38:53.407Z,1.03
2018-02-03T07:41:21.357Z,1.03
2018-02-03T07:43:49.933Z,0.80
2018-02-03T07:46:18.465Z,1.10
2018-02-03T07:48:46.407Z,0.80
2018-02-03T07:51:14.204Z,0.80
2018-02-03T07:53:42.387Z,0.90
2018-02-03T07:56:10.737Z,1.47
2018-02-03T08:11:20.865Z,1.17
2018-02-03T08:16:36.481Z,0.83
2018-02-03T08:19:15.513Z,1.20
2018-02-03T08:21:43.402Z,0.83
2018-02-03T08:24:11.183Z,1.10
2018-02-03T08:26:39.212Z,1.07
2018-02-03T08:29:07.024Z,1.20
2018-02-03T08:31:34.845Z,1.07
2018-02-03T08:34:02.707Z,0.70
2018-02-03T08:36:30.622Z,1.07
2018-02-03T08:38:58.577Z,1.27
2018-02-03T08:41:27.195Z,0.87
2018-02-03T08:43:55.224Z,0.97
2018-02-03T08:46:23.049Z,0.80
2018-02-03T08:48:50.923Z,0.90
2018-02-03T08:51:18.720Z,0.60
2018-02-03T08:53:46.579Z,1.00
2018-02-03T08:56:14.408Z,1.10
2018-02-03T08:58:42.314Z,0.90
2018-02-03T09:01:10.424Z,1.00
2018-02-03T09:03:40.872Z,1.27
2018-02-03T09:06:08.711Z,1.00
2018-02-03T09:08:36.525Z,0.80
2018-02-03T09:11:04.429Z,0.60
2018-02-03T09:13:33.019Z,1.37
2018-02-03T09:16:00.906Z,1.23
2018-02-03T09:18:28.765Z,1.13
2018-02-03T09:20:56.689Z,1.03
2018-02-03T09:23:25.377Z,1.20
2018-02-03T09:25:54.591Z,1.03
2018-02-03T09:28:24.118Z,1.83
2018-02-03T09:30:52.071Z,1.00
2018-02-03T09:33:22.690Z,1.40
2018-02-03T09:35:50.638Z,1.07
2018-02-03T09:38:18.829Z,1.20
2018-02-03T09:40:50.215Z,1.00
2018-02-03T09:43:18.128Z,1.20
2018-02-03T09:45:45.986Z,1.00
2018-02-03T09:48:13.793Z,1.40
2018-02-03T09:50:44.297Z,2.97
2018-02-03T09:53:16.457Z,1.43
2018-02-03T09:55:48.302Z,1.23
2018-02-03T09:58:24.311Z,1.00
2018-02-03T10:03:39.836Z,1.00
2018-02-03T10:06:08.754Z,16.00
2018-02-03T10:08:37.797Z,15.23
2018-02-03T10:11:05.725Z,2.57
2018-02-03T10:13:33.626Z,1.40
2018-02-03T10:16:01.441Z,1.33
2018-02-03T10:18:29.259Z,0.83
2018-02-03T10:20:57.082Z,0.73
2018-02-03T10:23:25.018Z,1.33
2018-02-03T10:25:52.814Z,1.50
2018-02-03T10:28:22.801Z,1.07
2018-02-03T10:30:50.628Z,1.03
2018-02-03T10:33:19.170Z,0.73
2018-02-03T10:35:46.986Z,0.93
2018-02-03T10:38:14.827Z,0.80
2018-02-03T10:40:43.436Z,0.77
2018-02-03T10:43:11.260Z,0.87
2018-02-03T10:45:40.832Z,0.90
2018-02-03T10:48:08.785Z,0.90
2018-02-03T10:50:37.094Z,1.37
2018-02-03T10:53:06.130Z,1.50
2018-02-03T10:55:35.212Z,0.90
2018-02-03T10:58:12.545Z,0.93
2018-02-03T11:03:30.848Z,0.80
2018-02-03T11:06:03.151Z,1.07
2018-02-03T11:08:33.786Z,1.00
2018-02-03T11:11:03.453Z,1.07
2018-02-03T11:13:32.948Z,0.83
2018-02-03T11:16:02.388Z,1.50
2018-02-03T11:18:32.574Z,0.97
2018-02-03T11:21:01.420Z,1.00
2018-02-03T11:23:39.208Z,1.13
2018-02-03T11:38:39.732Z,0.70
2018-02-03T12:03:46.184Z,0.90
2018-02-03T12:06:14.218Z,0.80
2018-02-03T12:08:45.160Z,1.00
2018-02-03T12:11:13.062Z,1.23
2018-02-03T12:13:42.523Z,1.10
2018-02-03T12:16:10.538Z,1.57
2018-02-03T12:18:39.124Z,1.27
2018-02-03T12:21:12.676Z,1.17
2018-02-03T12:30:28.112Z,1.80
2018-02-03T12:32:55.907Z,0.80
2018-02-03T12:35:32.766Z,2.10
2018-02-03T12:47:44.712Z,1.30
2018-02-03T12:53:45.921Z,0.70
2018-02-03T12:56:16.339Z,0.83
2018-02-03T13:06:03.209Z,0.90
2018-02-03T13:11:23.291Z,0.90
2018-02-03T13:13:51.180Z,1.40
2018-02-03T13:19:51.883Z,0.77
2018-02-03T13:22:21.808Z,1.60
2018-02-03T13:24:49.839Z,1.20
2018-02-03T13:27:17.701Z,1.13
2018-02-03T13:29:48.130Z,0.70
2018-02-03T13:32:20.036Z,1.10
2018-02-03T13:35:02.123Z,1.20
2018-02-03T13:37:56.436Z,0.70
2018-02-03T13:43:56.431Z,0.80
2018-02-03T13:46:25.522Z,0.97
2018-02-03T13:48:54.720Z,1.10
2018-02-03T13:51:22.521Z,0.90
2018-02-03T13:53:50.322Z,0.83
2018-02-03T13:56:18.155Z,0.80
2018-02-03T13:58:45.984Z,1.00
2018-02-03T14:01:13.817Z,0.77
2018-02-03T14:03:41.615Z,1.27
2018-02-03T14:06:09.391Z,1.30
2018-02-03T14:08:37.199Z,0.80
2018-02-03T14:11:05.767Z,0.83
2018-02-03T14:13:33.647Z,0.97
2018-02-03T14:16:01.485Z,1.20
2018-02-03T14:18:49.615Z,1.10
2018-02-03T14:48:39.331Z,1.30
2018-02-03T14:51:07.155Z,0.70
2018-02-03T14:53:34.943Z,1.10
2018-02-03T14:56:02.740Z,0.93
2018-02-03T14:58:31.271Z,0.90
2018-02-03T15:00:59.073Z,0.70
2018-02-03T15:03:26.896Z,1.10
2018-02-03T15:05:54.715Z,1.27
2018-02-03T15:08:22.525Z,1.33
2018-02-03T15:10:50.362Z,1.00
2018-02-03T15:13:18.403Z,0.73
2018-02-03T15:15:46.307Z,0.70
2018-02-03T15:18:14.154Z,1.20
2018-02-03T15:20:42.952Z,1.10
2018-02-03T15:23:12.103Z,1.10
2018-02-03T15:25:42.032Z,1.50
2018-02-03T15:28:10.959Z,1.00
2018-02-03T15:30:39.572Z,1.10
2018-02-03T16:32:18.266Z,0.80
2018-02-03T16:34:46.120Z,0.93
2018-02-03T16:37:13.919Z,1.00
2018-02-03T16:39:43.486Z,0.80
2018-02-03T16:42:11.363Z,0.90
2018-02-03T16:44:39.202Z,1.13
2018-02-03T16:47:07.056Z,1.00
2018-02-03T16:49:35.003Z,0.97
2018-02-03T16:52:26.972Z,1.47
2018-02-03T16:54:57.682Z,1.20
2018-02-03T17:02:16.965Z,1.17
2018-02-03T17:04:44.854Z,0.90
2018-02-03T17:07:12.877Z,1.87
2018-02-03T17:09:55.615Z,1.53
2018-02-03T17:12:36.707Z,1.60
2018-02-03T17:15:10.577Z,1.83
2018-02-03T17:17:38.427Z,1.60
2018-02-03T17:20:06.568Z,1.70
2018-02-03T17:22:34.431Z,1.20
2018-02-03T17:25:02.221Z,1.40
2018-02-03T17:27:30.928Z,1.20
2018-02-03T17:30:03.196Z,1.50
2018-02-03T17:32:43.950Z,1.30
2018-02-03T17:40:48.428Z,2.30
2018-02-03T17:43:16.260Z,1.40
2018-02-03T17:45:49.841Z,1.60
2018-02-03T17:48:17.981Z,1.70
2018-02-03T17:50:46.131Z,2.27
2018-02-03T17:53:14.715Z,2.20
2018-02-03T17:55:48.159Z,2.60
2018-02-03T17:58:16.038Z,2.20
2018-02-03T18:00:43.907Z,1.50
2018-02-03T18:03:11.713Z,1.43
2018-02-03T18:05:39.569Z,1.40
2018-02-03T18:08:07.381Z,1.67
2018-02-03T18:10:35.195Z,1.80
2018-02-03T18:13:05.993Z,1.90
2018-02-03T18:15:34.843Z,1.63
2018-02-03T18:18:03.958Z,1.90
2018-02-03T18:20:32.795Z,2.70
2018-02-03T18:23:00.664Z,2.50
2018-02-03T18:25:28.536Z,1.80
2018-02-03T18:27:56.370Z,2.30
2018-02-03T18:30:24.273Z,1.93
2018-02-03T18:32:52.162Z,1.97
2018-02-03T18:35:20.094Z,1.53
2018-02-03T18:37:47.977Z,1.60
2018-02-03T18:40:15.787Z,1.60
2018-02-03T18:42:44.521Z,1.23
2018-02-03T18:48:27.046Z,1.40
2018-02-03T18:50:54.921Z,1.40
2018-02-03T18:53:22.772Z,1.30
2018-02-03T18:55:50.637Z,2.10
2018-02-03T18:58:18.542Z,2.30
2018-02-03T19:00:46.404Z,1.90
2018-02-03T19:03:14.217Z,1.60
2018-02-03T19:05:42.035Z,1.53
2018-02-03T19:08:10.088Z,2.27
2018-02-03T19:10:38.082Z,2.80
2018-02-03T19:13:06.013Z,3.13
2018-02-03T19:15:33.932Z,4.13
2018-02-03T19:18:01.968Z,2.30
2018-02-03T19:20:29.796Z,1.70
2018-02-03T19:22:57.696Z,1.43
2018-02-03T19:25:25.605Z,2.10
2018-02-03T19:27:54.199Z,15.37
2018-02-03T19:30:22.007Z,6.83
2018-02-03T19:32:49.800Z,3.43
2018-02-03T19:35:17.611Z,2.97
2018-02-03T19:37:45.468Z,2.03
2018-02-03T19:40:13.289Z,2.27
2018-02-03T19:42:41.115Z,1.87
2018-02-03T19:45:09.057Z,2.37
2018-02-03T19:47:36.895Z,2.40
2018-02-03T19:50:04.701Z,3.37
2018-02-03T19:52:32.565Z,1.90
2018-02-03T19:55:00.452Z,1.80
2018-02-03T19:57:28.278Z,2.67
2018-02-03T19:59:56.949Z,2.13
2018-02-03T20:02:24.740Z,1.40
2018-02-03T20:04:53.316Z,1.60
2018-02-03T20:07:21.906Z,1.60
2018-02-03T20:09:49.795Z,1.57
2018-02-03T20:12:17.623Z,1.90
2018-02-03T20:14:45.417Z,2.73
2018-02-03T20:17:13.225Z,2.85
2018-02-03T20:19:41.764Z,2.60
2018-02-03T20:22:09.892Z,2.20
2018-02-03T20:24:39.049Z,2.67
2018-02-03T20:27:07.033Z,2.63
2018-02-03T20:29:35.008Z,3.47
2018-02-03T20:32:03.731Z,3.17
2018-02-03T20:34:32.293Z,3.60
2018-02-03T20:37:00.084Z,3.90
2018-02-03T20:39:28.763Z,3.67
2018-02-03T20:41:57.331Z,4.07
2018-02-03T20:44:25.265Z,5.03
2018-02-03T20:46:53.870Z,4.50
2018-02-03T20:49:21.776Z,8.50
2018-02-03T20:51:50.419Z,6.73
2018-02-03T20:54:18.320Z,5.50
2018-02-03T20:56:48.555Z,5.50
2018-02-03T20:59:16.607Z,5.30
2018-02-03T21:01:45.985Z,4.60
2018-02-03T21:04:13.970Z,4.10
2018-02-03T21:06:42.583Z,4.30
2018-02-03T21:09:10.527Z,3.57
2018-02-03T21:11:38.524Z,3.10
2018-02-03T21:14:06.459Z,2.70
2018-02-03T21:16:35.133Z,2.80
2018-02-03T21:19:03.196Z,2.57
2018-02-03T21:21:31.012Z,3.30
2018-02-03T21:23:58.840Z,2.50
2018-02-03T21:26:26.627Z,2.60
2018-02-03T21:28:55.249Z,2.20
2018-02-03T21:31:28.865Z,4.23
2018-02-03T21:33:56.919Z,3.63
2018-02-03T21:36:24.762Z,6.47
2018-02-03T21:38:52.691Z,5.67
2018-02-03T21:41:21.332Z,5.20
2018-02-03T21:43:49.179Z,4.97
2018-02-03T21:46:17.077Z,6.20
2018-02-03T21:48:44.892Z,6.60
2018-02-03T21:51:13.518Z,6.63
2018-02-03T21:53:41.452Z,6.40
2018-02-03T21:56:09.349Z,5.50
2018-02-03T21:58:37.243Z,6.20
2018-02-03T22:01:05.172Z,4.20
2018-02-03T22:03:33.019Z,2.47
2018-02-03T22:06:01.670Z,2.20
2018-02-03T22:08:29.592Z,2.13
2018-02-03T22:10:58.168Z,1.80
2018-02-03T22:13:26.132Z,1.77
2018-02-03T22:15:53.994Z,1.60
2018-02-03T22:18:21.791Z,2.40
2018-02-03T22:20:49.666Z,2.70
2018-02-03T22:23:17.570Z,1.63
2018-02-03T22:25:46.405Z,1.60
2018-02-03T22:28:14.216Z,1.50
2018-02-03T22:30:42.404Z,1.97
2018-02-03T22:33:10.525Z,2.43
2018-02-03T22:35:38.373Z,2.20
2018-02-03T22:38:06.281Z,2.80
2018-02-03T22:40:34.091Z,2.10
2018-02-03T22:43:01.862Z,1.90
2018-02-03T22:45:29.689Z,2.30
2018-02-03T22:47:57.484Z,2.40
2018-02-03T22:50:27.014Z,1.40
2018-02-03T22:52:54.821Z,1.58
2018-02-03T22:55:22.606Z,2.00
2018-02-03T22:57:51.404Z,1.37
2018-02-03T23:00:19.240Z,1.40
2018-02-03T23:02:52.837Z,1.50
2018-02-03T23:05:20.647Z,1.20
2018-02-03T23:07:48.516Z,1.77
2018-02-03T23:10:16.327Z,2.70
2018-02-03T23:12:44.144Z,2.27
2018-02-03T23:15:11.950Z,3.20
2018-02-03T23:17:39.788Z,3.93
2018-02-03T23:20:07.605Z,3.67
2018-02-03T23:22:35.393Z,3.63
2018-02-03T23:25:04.001Z,3.33
2018-02-03T23:27:31.787Z,3.30
2018-02-03T23:29:59.567Z,2.87
2018-02-03T23:32:28.140Z,2.60
2018-02-03T23:34:55.929Z,2.90
2018-02-03T23:37:24.612Z,2.47
2018-02-03T23:39:53.680Z,2.30
2018-02-03T23:42:21.521Z,3.30
2018-02-03T23:44:49.348Z,3.83
2018-02-03T23:47:17.127Z,2.37
2018-02-03T23:49:45.692Z,2.67
2018-02-03T23:52:15.270Z,2.00
2018-02-03T23:54:43.074Z,1.80
2018-02-03T23:57:11.654Z,1.60
2018-02-03T23:59:40.300Z,1.77
